Wetterdaten: Woche 29.05.17 - 04.06.17 (KW22)
Datum Zeit Temp. A. Feuchte A. Luftdruck Regen Wind Richtung Taupunkt Windchill Windben
29.05.2017 00:00 13,4 C 78 % 1018,9 hPa 0,0 l/m 0,0 km/h N 9,6 C 13,4 C 0,0 km/h
29.05.2017 01:00 12,5 C 80 % 1018,3 hPa 0,0 l/m 0,0 km/h N 9,1 C 12,5 C 0,0 km/h
29.05.2017 02:00 11,8 C 82 % 1017,8 hPa 0,0 l/m 0,0 km/h N 8,7 C 11,8 C 0,0 km/h
29.05.2017 03:00 11,2 C 82 % 1017,3 hPa 0,0 l/m 0,0 km/h N 8,2 C 11,2 C 0,0 km/h
29.05.2017 04:00 10,8 C 82 % 1017,0 hPa 0,0 l/m 0,0 km/h N 7,8 C 10,8 C 0,0 km/h
29.05.2017 05:00 10,4 C 82 % 1016,8 hPa 0,0 l/m 0,0 km/h N 7,5 C 10,4 C 0,0 km/h
29.05.2017 06:00 11,2 C 83 % 1016,8 hPa 0,0 l/m 0,0 km/h N 8,4 C 11,2 C 0,0 km/h
29.05.2017 07:00 13,8 C 82 % 1016,7 hPa 0,0 l/m 0,1 km/h N 10,7 C 13,8 C 2,4 km/h
29.05.2017 08:00 17,4 C 74 % 1016,4 hPa 0,0 l/m 0,0 km/h N 12,6 C 17,4 C 1,2 km/h
29.05.2017 09:00 21,7 C 60 % 1016,4 hPa 0,0 l/m 0,1 km/h N 13,6 C 21,7 C 2,8 km/h
29.05.2017 10:00 23,5 C 58 % 1016,3 hPa 0,0 l/m 0,2 km/h N 14,9 C 23,5 C 4,0 km/h
29.05.2017 11:00 25,0 C 55 % 1016,1 hPa 0,0 l/m 0,4 km/h N 15,3 C 25,0 C 4,4 km/h
29.05.2017 12:00 26,3 C 53 % 1015,7 hPa 0,0 l/m 0,4 km/h N 16,0 C 26,3 C 6,4 km/h
29.05.2017 13:00 27,2 C 53 % 1015,3 hPa 0,0 l/m 0,8 km/h N 16,7 C 27,2 C 7,6 km/h
29.05.2017 14:00 28,2 C 47 % 1014,7 hPa 0,0 l/m 0,7 km/h N 15,8 C 28,2 C 6,4 km/h
29.05.2017 15:00 28,3 C 42 % 1014,2 hPa 0,0 l/m 0,3 km/h N 14,2 C 28,3 C 3,6 km/h
29.05.2017 16:00 27,7 C 46 % 1013,8 hPa 0,0 l/m 0,2 km/h N 15,0 C 27,7 C 3,2 km/h
29.05.2017 17:00 27,6 C 47 % 1013,3 hPa 0,0 l/m 0,5 km/h N 15,2 C 27,6 C 6,0 km/h
29.05.2017 18:00 28,1 C 47 % 1012,9 hPa 0,0 l/m 0,6 km/h N 15,6 C 28,1 C 6,0 km/h
29.05.2017 19:00 27,5 C 47 % 1012,8 hPa 0,0 l/m 0,3 km/h N 15,0 C 27,5 C 5,6 km/h
29.05.2017 20:00 25,7 C 51 % 1012,6 hPa 0,0 l/m 0,1 km/h N 14,6 C 25,7 C 1,6 km/h
29.05.2017 21:00 22,0 C 62 % 1012,9 hPa 0,0 l/m 0,0 km/h N 14,3 C 22,0 C 0,0 km/h
29.05.2017 22:00 19,3 C 71 % 1013,0 hPa 0,0 l/m 0,0 km/h N 13,9 C 19,3 C 0,0 km/h
29.05.2017 23:00 17,7 C 76 % 1012,9 hPa 0,0 l/m 0,0 km/h N 13,4 C 17,7 C 0,0 km/h
30.05.2017 00:00 16,8 C 79 % 1012,8 hPa 0,0 l/m 0,0 km/h N 13,2 C 16,8 C 0,0 km/h
30.05.2017 01:00 17,0 C 80 % 1012,5 hPa 0,0 l/m 0,0 km/h N 13,5 C 17,0 C 0,0 km/h
30.05.2017 02:00 17,3 C 80 % 1012,5 hPa 0,0 l/m 0,0 km/h N 13,8 C 17,3 C 0,4 km/h
30.05.2017 03:00 17,4 C 80 % 1012,4 hPa 0,0 l/m 0,0 km/h N 13,9 C 17,4 C 0,0 km/h
30.05.2017 04:00 17,1 C 80 % 1012,2 hPa 0,0 l/m 0,0 km/h N 13,6 C 17,1 C 0,0 km/h
30.05.2017 05:00 17,0 C 81 % 1012,2 hPa 0,0 l/m 0,0 km/h N 13,7 C 17,0 C 0,0 km/h
30.05.2017 06:00 17,3 C 81 % 1012,7 hPa 0,0 l/m 0,0 km/h N 14,1 C 17,3 C 0,0 km/h
30.05.2017 07:00 18,4 C 81 % 1013,0 hPa 0,0 l/m 0,0 km/h N 15,0 C 18,4 C 0,0 km/h
30.05.2017 08:00 20,4 C 77 % 1013,2 hPa 0,0 l/m 0,0 km/h N 16,3 C 20,4 C 0,0 km/h
30.05.2017 09:00 23,8 C 68 % 1013,2 hPa 0,0 l/m 0,0 km/h N 17,5 C 23,8 C 0,8 km/h
30.05.2017 10:00 26,4 C 63 % 1012,8 hPa 0,0 l/m 0,1 km/h N 18,7 C 26,4 C 2,0 km/h
30.05.2017 11:00 29,5 C 51 % 1012,8 hPa 0,0 l/m 0,4 km/h N 18,1 C 29,5 C 5,2 km/h
30.05.2017 12:00 30,8 C 49 % 1012,5 hPa 0,0 l/m 0,2 km/h N 18,8 C 30,8 C 3,6 km/h
30.05.2017 13:00 31,4 C 48 % 1012,2 hPa 0,0 l/m 0,6 km/h N 19,1 C 31,4 C 7,2 km/h
30.05.2017 14:00 31,9 C 46 % 1011,5 hPa 0,0 l/m 0,7 km/h N 18,7 C 31,9 C 6,0 km/h
30.05.2017 15:00 31,7 C 43 % 1010,8 hPa 0,0 l/m 0,7 km/h N 17,7 C 31,7 C 5,6 km/h
30.05.2017 16:00 30,8 C 43 % 1010,4 hPa 0,0 l/m 0,8 km/h N 16,6 C 30,8 C 6,8 km/h
30.05.2017 17:00 30,7 C 45 % 1010,2 hPa 0,0 l/m 0,9 km/h N 17,2 C 30,7 C 6,4 km/h
30.05.2017 18:00 30,7 C 45 % 1010,2 hPa 0,0 l/m 0,9 km/h N 17,2 C 30,7 C 7,2 km/h
30.05.2017 19:00 29,5 C 47 % 1010,7 hPa 0,0 l/m 0,4 km/h N 16,9 C 29,5 C 6,0 km/h
30.05.2017 20:00 27,5 C 52 % 1010,8 hPa 0,0 l/m 0,1 km/h N 16,7 C 27,5 C 2,0 km/h
30.05.2017 21:00 25,8 C 57 % 1010,9 hPa 0,0 l/m 0,0 km/h N 16,6 C 25,8 C 1,2 km/h
30.05.2017 22:00 23,9 C 62 % 1011,0 hPa 0,0 l/m 0,0 km/h N 16,0 C 23,9 C 1,2 km/h
30.05.2017 23:00 24,1 C 62 % 1011,4 hPa 0,0 l/m 3,1 km/h N 16,4 C 24,1 C 14,5 km/h
31.05.2017 00:00 24,2 C 60 % 1012,3 hPa 0,0 l/m 14,2 km/h N 15,9 C 22,5 C 33,8 km/h
31.05.2017 01:00 22,2 C 68 % 1014,3 hPa 0,0 l/m 7,3 km/h N 15,9 C 21,8 C 20,5 km/h
31.05.2017 02:00 21,1 C 72 % 1014,7 hPa 0,0 l/m 0,5 km/h N 15,9 C 21,1 C 6,0 km/h
31.05.2017 03:00 20,4 C 75 % 1014,6 hPa 0,0 l/m 0,0 km/h N 15,7 C 20,4 C 0,0 km/h
31.05.2017 04:00 19,4 C 78 % 1014,7 hPa 0,0 l/m 0,0 km/h N 15,3 C 19,4 C 0,0 km/h
31.05.2017 05:00 19,1 C 81 % 1015,0 hPa 0,0 l/m 0,0 km/h N 15,6 C 19,1 C 1,2 km/h
31.05.2017 06:00 19,3 C 81 % 1015,2 hPa 0,0 l/m 0,0 km/h N 15,9 C 19,3 C 1,2 km/h
31.05.2017 07:00 20,3 C 78 % 1015,4 hPa 0,0 l/m 0,1 km/h N 16,4 C 20,3 C 3,2 km/h
31.05.2017 08:00 23,2 C 67 % 1015,6 hPa 0,0 l/m 4,8 km/h N 16,8 C 22,9 C 23,4 km/h
31.05.2017 09:00 24,5 C 63 % 1016,0 hPa 0,0 l/m 8,6 km/h N 17,0 C 23,9 C 24,9 km/h
31.05.2017 10:00 25,4 C 61 % 1016,3 hPa 0,0 l/m 10,4 km/h N 17,3 C 24,5 C 28,2 km/h
31.05.2017 11:00 25,8 C 61 % 1016,6 hPa 0,0 l/m 7,9 km/h N 17,7 C 25,5 C 23,7 km/h
31.05.2017 12:00 26,3 C 61 % 1016,6 hPa 0,0 l/m 6,6 km/h N 18,0 C 26,1 C 20,9 km/h
31.05.2017 13:00 27,4 C 58 % 1016,3 hPa 0,0 l/m 6,6 km/h N 18,3 C 27,2 C 22,1 km/h
31.05.2017 14:00 27,5 C 57 % 1016,0 hPa 0,0 l/m 7,2 km/h N 18,2 C 27,4 C 21,3 km/h
31.05.2017 15:00 26,8 C 56 % 1016,3 hPa 0,0 l/m 7,6 km/h N 17,3 C 26,6 C 20,5 km/h
31.05.2017 16:00 26,6 C 55 % 1015,8 hPa 0,0 l/m 6,6 km/h N 16,6 C 26,4 C 20,9 km/h
31.05.2017 17:00 25,7 C 55 % 1015,4 hPa 0,0 l/m 4,8 km/h N 16,0 C 25,7 C 16,9 km/h
31.05.2017 18:00 25,8 C 56 % 1015,6 hPa 0,0 l/m 0,7 km/h N 16,2 C 25,8 C 6,1 km/h
31.05.2017 19:00 25,2 C 60 % 1015,7 hPa 0,0 l/m 0,2 km/h N 16,8 C 25,2 C 5,6 km/h
31.05.2017 20:00 24,3 C 66 % 1015,4 hPa 0,0 l/m 0,1 km/h N 17,6 C 24,3 C 3,6 km/h
31.05.2017 21:00 21,5 C 74 % 1015,8 hPa 0,0 l/m 0,3 km/h N 16,6 C 21,5 C 4,4 km/h
31.05.2017 22:00 20,0 C 76 % 1016,5 hPa 0,0 l/m 0,1 km/h N 15,7 C 20,0 C 2,4 km/h
31.05.2017 23:00 19,6 C 78 % 1016,9 hPa 0,0 l/m 0,1 km/h N 15,6 C 19,6 C 2,0 km/h
01.06.2017 00:00 19,9 C 77 % 1017,3 hPa 0,0 l/m 0,4 km/h N 15,7 C 19,9 C 6,0 km/h
01.06.2017 01:00 20,0 C 76 % 1017,6 hPa 0,0 l/m 1,3 km/h N 15,6 C 20,0 C 8,0 km/h
01.06.2017 02:00 19,9 C 73 % 1017,9 hPa 0,0 l/m 0,3 km/h N 14,8 C 19,9 C 4,0 km/h
01.06.2017 03:00 20,0 C 72 % 1017,7 hPa 0,0 l/m 0,5 km/h N 14,6 C 20,0 C 6,4 km/h
01.06.2017 04:00 19,7 C 72 % 1017,8 hPa 0,0 l/m 1,3 km/h N 14,4 C 19,7 C 8,1 km/h
01.06.2017 05:00 19,4 C 71 % 1018,2 hPa 0,0 l/m 1,2 km/h N 13,9 C 19,4 C 7,6 km/h
01.06.2017 06:00 19,0 C 69 % 1018,8 hPa 0,0 l/m 1,5 km/h N 13,3 C 19,0 C 8,1 km/h
01.06.2017 07:00 19,2 C 68 % 1019,1 hPa 0,0 l/m 1,4 km/h N 13,1 C 19,2 C 8,4 km/h
01.06.2017 08:00 20,3 C 64 % 1019,3 hPa 0,0 l/m 1,6 km/h N 13,3 C 20,3 C 8,0 km/h
01.06.2017 09:00 21,1 C 61 % 1019,4 hPa 0,0 l/m 1,0 km/h N 13,2 C 21,1 C 7,6 km/h
01.06.2017 10:00 22,5 C 55 % 1019,3 hPa 0,0 l/m 2,5 km/h N 12,9 C 22,5 C 11,7 km/h
01.06.2017 11:00 23,0 C 49 % 1019,4 hPa 0,0 l/m 2,1 km/h N 11,6 C 23,0 C 10,9 km/h
01.06.2017 12:00 23,9 C 52 % 1019,2 hPa 0,0 l/m 2,5 km/h N 13,2 C 23,9 C 13,3 km/h
01.06.2017 13:00 24,4 C 52 % 1018,9 hPa 0,0 l/m 4,3 km/h N 13,9 C 24,4 C 17,7 km/h
01.06.2017 14:00 24,8 C 52 % 1018,5 hPa 0,0 l/m 4,6 km/h N 14,3 C 24,8 C 20,1 km/h
01.06.2017 15:00 25,1 C 49 % 1017,9 hPa 0,0 l/m 3,8 km/h N 13,6 C 25,1 C 14,9 km/h
01.06.2017 16:00 25,2 C 50 % 1017,6 hPa 0,0 l/m 3,1 km/h N 14,0 C 25,2 C 15,7 km/h
01.06.2017 17:00 25,7 C 48 % 1017,3 hPa 0,0 l/m 1,3 km/h N 13,7 C 25,7 C 9,6 km/h
01.06.2017 18:00 26,0 C 48 % 1016,9 hPa 0,0 l/m 0,5 km/h N 14,0 C 26,0 C 6,4 km/h
01.06.2017 19:00 25,8 C 48 % 1016,8 hPa 0,0 l/m 0,2 km/h N 13,7 C 25,8 C 4,4 km/h
01.06.2017 20:00 24,5 C 53 % 1017,0 hPa 0,0 l/m 0,0 km/h N 14,1 C 24,5 C 0,4 km/h
01.06.2017 21:00 21,6 C 62 % 1017,7 hPa 0,0 l/m 0,0 km/h N 13,9 C 21,6 C 0,0 km/h
01.06.2017 22:00 19,4 C 69 % 1018,3 hPa 0,0 l/m 0,0 km/h N 13,5 C 19,4 C 0,0 km/h
01.06.2017 23:00 17,5 C 73 % 1018,3 hPa 0,0 l/m 0,0 km/h N 12,6 C 17,5 C 0,4 km/h
02.06.2017 00:00 16,2 C 76 % 1018,2 hPa 0,0 l/m 0,0 km/h N 12,0 C 16,2 C 0,0 km/h
02.06.2017 01:00 15,5 C 77 % 1018,0 hPa 0,0 l/m 0,0 km/h N 11,4 C 15,5 C 1,2 km/h
02.06.2017 02:00 15,1 C 76 % 1017,9 hPa 0,0 l/m 0,0 km/h N 10,9 C 15,1 C 0,8 km/h
02.06.2017 03:00 15,1 C 77 % 1017,6 hPa 0,0 l/m 0,0 km/h N 11,1 C 15,1 C 0,8 km/h
02.06.2017 04:00 15,8 C 75 % 1017,6 hPa 0,0 l/m 0,0 km/h N 11,4 C 15,8 C 0,8 km/h
02.06.2017 05:00 15,5 C 75 % 1017,7 hPa 0,0 l/m 0,1 km/h N 11,1 C 15,5 C 3,2 km/h
02.06.2017 06:00 15,3 C 75 % 1017,8 hPa 0,0 l/m 0,0 km/h N 10,9 C 15,3 C 2,0 km/h
02.06.2017 07:00 17,0 C 73 % 1017,7 hPa 0,0 l/m 0,0 km/h N 12,1 C 17,0 C 0,4 km/h
02.06.2017 08:00 19,7 C 65 % 1018,0 hPa 0,0 l/m 0,1 km/h N 12,9 C 19,7 C 2,8 km/h
02.06.2017 09:00 22,4 C 59 % 1018,0 hPa 0,0 l/m 0,1 km/h N 14,0 C 22,4 C 3,2 km/h
02.06.2017 10:00 25,0 C 50 % 1017,7 hPa 0,0 l/m 0,4 km/h N 13,9 C 25,0 C 6,0 km/h
02.06.2017 11:00 26,3 C 46 % 1017,4 hPa 0,0 l/m 1,2 km/h N 13,6 C 26,3 C 8,8 km/h
02.06.2017 12:00 27,3 C 44 % 1016,9 hPa 0,0 l/m 1,0 km/h N 14,1 C 27,3 C 9,7 km/h
02.06.2017 13:00 27,3 C 48 % 1016,1 hPa 0,0 l/m 1,3 km/h N 15,2 C 27,3 C 9,7 km/h
02.06.2017 14:00 27,3 C 52 % 1015,3 hPa 0,0 l/m 1,3 km/h N 16,5 C 27,3 C 10,4 km/h
02.06.2017 15:00 27,5 C 50 % 1014,8 hPa 0,0 l/m 0,5 km/h N 16,2 C 27,5 C 6,4 km/h
02.06.2017 16:00 27,2 C 52 % 1014,3 hPa 0,0 l/m 0,3 km/h N 16,3 C 27,2 C 3,2 km/h
02.06.2017 17:00 26,9 C 56 % 1014,0 hPa 0,0 l/m 1,3 km/h N 17,2 C 26,9 C 7,7 km/h
02.06.2017 18:00 27,1 C 55 % 1013,6 hPa 0,0 l/m 1,0 km/h N 17,3 C 27,1 C 6,8 km/h
02.06.2017 19:00 26,1 C 57 % 1013,6 hPa 0,0 l/m 0,4 km/h N 16,9 C 26,1 C 4,8 km/h
02.06.2017 20:00 24,6 C 60 % 1013,8 hPa 0,0 l/m 0,0 km/h N 16,3 C 24,6 C 0,4 km/h
02.06.2017 21:00 22,1 C 70 % 1014,1 hPa 0,0 l/m 0,0 km/h N 16,2 C 22,1 C 0,8 km/h
02.06.2017 22:00 20,3 C 76 % 1014,1 hPa 0,0 l/m 0,0 km/h N 15,9 C 20,3 C 1,2 km/h
02.06.2017 23:00 19,4 C 78 % 1014,3 hPa 0,0 l/m 0,0 km/h N 15,3 C 19,4 C 0,0 km/h
03.06.2017 00:00 18,4 C 80 % 1014,2 hPa 0,0 l/m 0,0 km/h N 14,8 C 18,4 C 1,6 km/h
03.06.2017 01:00 17,7 C 81 % 1014,3 hPa 0,0 l/m 0,0 km/h N 14,3 C 17,7 C 0,4 km/h
03.06.2017 02:00 17,5 C 81 % 1014,1 hPa 0,0 l/m 0,0 km/h N 14,2 C 17,5 C 0,4 km/h
03.06.2017 03:00 17,0 C 81 % 1014,1 hPa 0,0 l/m 0,0 km/h N 13,7 C 17,0 C 0,8 km/h
03.06.2017 04:00 16,3 C 82 % 1014,0 hPa 0,0 l/m 0,0 km/h N 13,2 C 16,3 C 0,8 km/h
03.06.2017 05:00 15,9 C 82 % 1014,3 hPa 0,0 l/m 0,0 km/h N 12,8 C 15,9 C 0,0 km/h
03.06.2017 06:00 16,7 C 82 % 1014,6 hPa 0,0 l/m 0,0 km/h N 13,6 C 16,7 C 0,4 km/h
03.06.2017 07:00 18,9 C 81 % 1015,0 hPa 0,0 l/m 0,0 km/h N 15,6 C 18,9 C 0,8 km/h
03.06.2017 08:00 21,5 C 76 % 1015,2 hPa 0,0 l/m 0,5 km/h N 17,1 C 21,5 C 5,6 km/h
03.06.2017 09:00 22,9 C 68 % 1015,2 hPa 0,0 l/m 2,0 km/h N 16,6 C 22,9 C 9,3 km/h
03.06.2017 10:00 24,5 C 63 % 1014,8 hPa 0,0 l/m 1,0 km/h N 16,8 C 24,5 C 6,8 km/h
03.06.2017 11:00 25,7 C 60 % 1014,4 hPa 0,0 l/m 1,1 km/h N 17,2 C 25,7 C 7,6 km/h
03.06.2017 12:00 27,0 C 56 % 1014,0 hPa 0,0 l/m 1,1 km/h N 17,4 C 27,0 C 8,1 km/h
03.06.2017 13:00 28,4 C 50 % 1013,5 hPa 0,0 l/m 1,0 km/h N 16,8 C 28,4 C 7,6 km/h
03.06.2017 14:00 27,6 C 50 % 1013,1 hPa 0,0 l/m 0,3 km/h N 16,3 C 27,6 C 4,8 km/h
03.06.2017 15:00 27,8 C 49 % 1012,5 hPa 0,0 l/m 0,6 km/h N 16,2 C 27,8 C 6,0 km/h
03.06.2017 16:00 27,0 C 53 % 1012,3 hPa 0,0 l/m 0,2 km/h N 16,5 C 27,0 C 4,0 km/h
03.06.2017 17:00 23,9 C 64 % 1012,5 hPa 2,1 l/m 1,6 km/h N 16,6 C 23,9 C 8,8 km/h
03.06.2017 18:00 22,0 C 80 % 1011,4 hPa 0,8 l/m 0,0 km/h N 18,5 C 22,0 C 0,4 km/h
03.06.2017 19:00 23,6 C 79 % 1011,0 hPa 0,0 l/m 0,0 km/h N 19,8 C 23,6 C 0,8 km/h
03.06.2017 20:00 23,3 C 78 % 1011,1 hPa 0,0 l/m 0,0 km/h N 19,1 C 23,3 C 0,0 km/h
03.06.2017 21:00 20,8 C 80 % 1011,3 hPa 0,0 l/m 0,0 km/h N 17,1 C 20,8 C 0,0 km/h
03.06.2017 22:00 18,9 C 81 % 1011,3 hPa 0,0 l/m 0,0 km/h N 15,6 C 18,9 C 0,0 km/h
03.06.2017 23:00 17,8 C 82 % 1010,9 hPa 0,0 l/m 0,0 km/h N 14,6 C 17,8 C 0,0 km/h
04.06.2017 00:00 17,2 C 82 % 1010,2 hPa 0,0 l/m 0,0 km/h N 14,1 C 17,2 C 0,0 km/h
04.06.2017 01:00 16,9 C 82 % 1009,6 hPa 0,0 l/m 0,0 km/h N 13,8 C 16,9 C 0,0 km/h
04.06.2017 02:00 16,4 C 82 % 1009,0 hPa 0,0 l/m 0,0 km/h N 13,3 C 16,4 C 0,0 km/h
04.06.2017 03:00 15,9 C 82 % 1008,6 hPa 0,3 l/m 0,0 km/h N 12,8 C 15,9 C 0,4 km/h
04.06.2017 04:00 15,4 C 82 % 1008,2 hPa 0,0 l/m 0,0 km/h N 12,3 C 15,4 C 0,0 km/h
04.06.2017 05:00 14,9 C 82 % 1008,2 hPa 0,0 l/m 0,0 km/h N 11,9 C 14,9 C 0,4 km/h
04.06.2017 06:00 15,7 C 82 % 1007,7 hPa 0,0 l/m 0,0 km/h N 12,7 C 15,7 C 0,0 km/h
04.06.2017 07:00 17,2 C 82 % 1007,6 hPa 0,0 l/m 0,0 km/h N 14,0 C 17,2 C 0,8 km/h
04.06.2017 08:00 19,6 C 81 % 1007,8 hPa 0,0 l/m 0,6 km/h N 16,3 C 19,6 C 5,2 km/h
04.06.2017 09:00 24,2 C 72 % 1007,9 hPa 0,0 l/m 1,0 km/h N 18,7 C 24,2 C 6,0 km/h
04.06.2017 10:00 27,0 C 59 % 1007,9 hPa 0,0 l/m 1,7 km/h N 18,4 C 27,0 C 8,1 km/h
04.06.2017 11:00 26,0 C 60 % 1008,3 hPa 0,0 l/m 7,9 km/h N 17,5 C 25,6 C 26,1 km/h
04.06.2017 12:00 25,5 C 60 % 1008,5 hPa 0,0 l/m 7,7 km/h N 17,2 C 25,2 C 25,4 km/h
04.06.2017 13:00 23,4 C 63 % 1009,0 hPa 0,0 l/m 8,1 km/h N 15,8 C 22,8 C 29,8 km/h
04.06.2017 14:00 22,7 C 64 % 1009,3 hPa 0,0 l/m 9,5 km/h N 15,6 C 21,7 C 31,8 km/h
04.06.2017 15:00 22,6 C 60 % 1009,9 hPa 0,0 l/m 10,5 km/h N 14,3 C 21,4 C 33,8 km/h
04.06.2017 16:00 21,5 C 63 % 1010,5 hPa 0,0 l/m 9,4 km/h N 14,1 C 20,5 C 34,2 km/h
04.06.2017 17:00 18,7 C 76 % 1011,9 hPa 1,0 l/m 8,0 km/h N 14,4 C 17,7 C 29,0 km/h
04.06.2017 18:00 17,1 C 81 % 1012,7 hPa 1,3 l/m 8,4 km/h N 13,9 C 16,2 C 27,4 km/h
04.06.2017 19:00 17,0 C 81 % 1013,5 hPa 0,8 l/m 7,2 km/h N 13,7 C 16,3 C 22,9 km/h
04.06.2017 20:00 17,4 C 81 % 1013,4 hPa 0,8 l/m 7,3 km/h N 14,0 C 16,8 C 20,9 km/h
04.06.2017 21:00 17,6 C 79 % 1013,6 hPa 0,5 l/m 6,3 km/h N 13,9 C 17,6 C 18,9 km/h
04.06.2017 22:00 17,7 C 78 % 1014,1 hPa 0,3 l/m 7,3 km/h N 13,9 C 17,2 C 22,5 km/h
04.06.2017 23:00 17,4 C 77 % 1014,3 hPa 0,0 l/m 6,4 km/h N 13,3 C 17,1 C 17,7 km/h
Min-Datum _ 29.05.17 29.05.17 04.06.17 - 29.05.17 - 29.05.17 29.05.17 29.05.17
_ Min-Zeit 05:30 15:00 07:30 - 00:00 - 05:45 05:45 00:00
Minimum _ 10,3 C 41 % 1007,5 hPa - 0,0 km/h - 7,4 C 10,3 C 0,0 km/h
Max-Datum _ 30.05.17 29.05.17 01.06.17 03.06.17 31.05.17 - 03.06.17 30.05.17 04.06.17
_ Max-Zeit 15:00 06:30 09:00 17:30 00:15 - 19:30 14:45 13:45
Maximum _ 32,3 C 83 % 1019,5 hPa 2,1 l/m 18,2 km/h
N
- 19,9 C 32,2 C 40,2 km/h
N
Durchschnitt _ 21,9 C 66 % 1014,4 hPa #7,8 l/m 1,6 km/h N 14,9 C 21,8 C 7,0 km/h